Terminal Aerodrome Forecast
Issued by NWS

Home | Current Version | Previous Version | Text Only | Print | Product List | Glossary On
Versions: 1 2 3 4 5 6 7 8 9 10 11 12 13 14 15 16 17 18 19 20 21 22 23 24
120
FTUS41 KGYX 200526
TAFLEB
TAF
KLEB 200526Z 2006/2106 34006KT P6SM BKN040
      TEMPO 2006/2009 SCT050
     FM200900 35005KT P6SM SCT050
     FM201400 34009G16KT P6SM FEW060
     FM202300 VRB03KT P6SM SKC=

USA.gov is the U.S. government's official web portal to all federal, state and local government web resources and services.